Terminal Aerodrome Forecast
Issued by NWS Tuscon, AZ

Home | Current Version | Previous Version | Text Only | Print | Product List | Glossary On
Versions: 1 2 3 4 5 6 7 8 9 10 11 12 13 14 15 16
611
FTUS45 KTWC 241733
TAFDUG
TAF
KDUG 241733Z 2418/2518 20006KT P6SM FEW030 SCT080
     FM242100 24009KT P6SM VCSH SCT050 BKN100
     FM250100 28008KT P6SM SCT060 BKN100
     FM250600 14004KT P6SM SCT060 BKN120=

USA.gov is the U.S. government's official web portal to all federal, state and local government web resources and services.